sensor_id;sensor_type;location;lat;lon;timestamp;pressure;altitude;pressure_sealevel;temperature;humidity
57442;BME280;43284;47.042;15.498;2022-09-09T00:02:14;97081.19;;;13.58;95.36
57442;BME280;43284;47.042;15.498;2022-09-09T00:07:52;97083.59;;;13.62;96.00
57442;BME280;43284;47.042;15.498;2022-09-09T00:10:40;97081.81;;;13.62;95.79
57442;BME280;43284;47.042;15.498;2022-09-09T00:13:22;97086.81;;;13.52;94.95
57442;BME280;43284;47.042;15.498;2022-09-09T00:16:04;97087.84;;;13.50;95.42
57442;BME280;43284;47.042;15.498;2022-09-09T00:19:07;97095.44;;;13.40;94.03
57442;BME280;43284;47.042;15.498;2022-09-09T00:22:07;97091.22;;;13.37;94.98
57442;BME280;43284;47.042;15.498;2022-09-09T00:24:49;97092.16;;;13.36;94.67
57442;BME280;43284;47.042;15.498;2022-09-09T00:27:45;97097.59;;;13.33;94.43
57442;BME280;43284;47.042;15.498;2022-09-09T00:30:26;97093.44;;;13.29;94.55
57442;BME280;43284;47.042;15.498;2022-09-09T00:33:11;97100.41;;;13.30;95.63
57442;BME280;43284;47.042;15.498;2022-09-09T00:35:48;97102.28;;;13.28;95.80
57442;BME280;43284;47.042;15.498;2022-09-09T00:50:00;97086.44;;;12.85;94.36
57442;BME280;43284;47.042;15.498;2022-09-09T00:52:40;97081.47;;;12.81;94.55
57442;BME280;43284;47.042;15.498;2022-09-09T00:58:08;97088.69;;;12.77;94.98
57442;BME280;43284;47.042;15.498;2022-09-09T01:00:50;97085.75;;;12.67;94.14
57442;BME280;43284;47.042;15.498;2022-09-09T01:03:38;97084.97;;;12.65;95.36
57442;BME280;43284;47.042;15.498;2022-09-09T01:09:11;97071.78;;;12.67;96.28
57442;BME280;43284;47.042;15.498;2022-09-09T01:14:47;97087.69;;;12.64;96.32
57442;BME280;43284;47.042;15.498;2022-09-09T01:17:23;97094.81;;;12.62;96.71
57442;BME280;43284;47.042;15.498;2022-09-09T01:20:31;97092.38;;;12.58;96.99
57442;BME280;43284;47.042;15.498;2022-09-09T01:26:09;97093.38;;;12.56;96.78
57442;BME280;43284;47.042;15.498;2022-09-09T01:28:43;97094.72;;;12.63;98.00
57442;BME280;43284;47.042;15.498;2022-09-09T01:31:20;97093.03;;;12.62;97.69
57442;BME280;43284;47.042;15.498;2022-09-09T01:33:49;97097.25;;;12.65;98.26
57442;BME280;43284;47.042;15.498;2022-09-09T01:36:37;97096.78;;;12.58;96.27
57442;BME280;43284;47.042;15.498;2022-09-09T01:39:07;97106.84;;;12.50;94.89
57442;BME280;43284;47.042;15.498;2022-09-09T01:41:34;97110.84;;;12.41;95.11
57442;BME280;43284;47.042;15.498;2022-09-09T01:44:02;97113.53;;;12.40;96.30
57442;BME280;43284;47.042;15.498;2022-09-09T01:46:30;97114.81;;;12.32;95.51
57442;BME280;43284;47.042;15.498;2022-09-09T01:48:58;97104.53;;;12.29;96.51
57442;BME280;43284;47.042;15.498;2022-09-09T01:51:27;97108.31;;;12.24;95.61
57442;BME280;43284;47.042;15.498;2022-09-09T01:53:55;97101.56;;;12.20;95.69
57442;BME280;43284;47.042;15.498;2022-09-09T01:59:04;97099.34;;;12.28;97.90
57442;BME280;43284;47.042;15.498;2022-09-09T02:04:36;97085.56;;;12.24;97.29
57442;BME280;43284;47.042;15.498;2022-09-09T02:07:14;97081.03;;;12.12;96.59
57442;BME280;43284;47.042;15.498;2022-09-09T02:09:51;97095.06;;;12.11;97.04
57442;BME280;43284;47.042;15.498;2022-09-09T02:12:25;97100.22;;;12.12;97.54
57442;BME280;43284;47.042;15.498;2022-09-09T02:15:05;97093.38;;;12.10;97.30
57442;BME280;43284;47.042;15.498;2022-09-09T02:17:38;97098.66;;;12.24;99.67
57442;BME280;43284;47.042;15.498;2022-09-09T02:20:11;97103.06;;;12.24;98.85
57442;BME280;43284;47.042;15.498;2022-09-09T02:22:42;97118.16;;;12.20;98.28
57442;BME280;43284;47.042;15.498;2022-09-09T02:25:15;97100.97;;;12.14;98.01
57442;BME280;43284;47.042;15.498;2022-09-09T02:27:46;97100.63;;;12.21;99.47
57442;BME280;43284;47.042;15.498;2022-09-09T02:30:15;97111.00;;;12.22;99.63
57442;BME280;43284;47.042;15.498;2022-09-09T02:32:43;97111.88;;;12.23;99.02
57442;BME280;43284;47.042;15.498;2022-09-09T02:35:17;97116.69;;;12.14;97.31
57442;BME280;43284;47.042;15.498;2022-09-09T02:37:47;97119.72;;;12.07;96.50
57442;BME280;43284;47.042;15.498;2022-09-09T02:40:16;97126.75;;;12.06;97.12
57442;BME280;43284;47.042;15.498;2022-09-09T02:42:45;97119.91;;;12.04;97.82
57442;BME280;43284;47.042;15.498;2022-09-09T02:45:20;97128.84;;;12.15;99.35
57442;BME280;43284;47.042;15.498;2022-09-09T02:48:07;97128.72;;;12.19;99.38
57442;BME280;43284;47.042;15.498;2022-09-09T02:51:06;97127.34;;;12.27;100.00
57442;BME280;43284;47.042;15.498;2022-09-09T02:53:56;97132.16;;;12.35;100.00
57442;BME280;43284;47.042;15.498;2022-09-09T02:56:31;97137.22;;;12.38;100.00
57442;BME280;43284;47.042;15.498;2022-09-09T02:59:05;97130.97;;;12.41;100.00
57442;BME280;43284;47.042;15.498;2022-09-09T03:01:33;97138.66;;;12.44;100.00
57442;BME280;43284;47.042;15.498;2022-09-09T03:04:03;97138.06;;;12.39;98.94
57442;BME280;43284;47.042;15.498;2022-09-09T03:06:32;97146.88;;;12.38;98.67
57442;BME280;43284;47.042;15.498;2022-09-09T03:08:59;97143.38;;;12.37;98.57
57442;BME280;43284;47.042;15.498;2022-09-09T03:11:28;97131.03;;;12.39;99.18
57442;BME280;43284;47.042;15.498;2022-09-09T03:13:56;97133.41;;;12.44;99.45
57442;BME280;43284;47.042;15.498;2022-09-09T03:16:23;97133.91;;;12.50;100.00
57442;BME280;43284;47.042;15.498;2022-09-09T03:18:51;97132.16;;;12.51;99.94
57442;BME280;43284;47.042;15.498;2022-09-09T03:21:19;97118.09;;;12.52;99.29
57442;BME280;43284;47.042;15.498;2022-09-09T03:23:47;97108.72;;;12.48;98.89
57442;BME280;43284;47.042;15.498;2022-09-09T03:26:14;97107.59;;;12.52;99.70
57442;BME280;43284;47.042;15.498;2022-09-09T03:28:42;97110.97;;;12.54;99.98
57442;BME280;43284;47.042;15.498;2022-09-09T03:31:12;97103.88;;;12.56;100.00
57442;BME280;43284;47.042;15.498;2022-09-09T03:33:40;97103.19;;;12.52;99.11
57442;BME280;43284;47.042;15.498;2022-09-09T03:36:14;97104.22;;;12.50;98.87
57442;BME280;43284;47.042;15.498;2022-09-09T03:38:42;97109.53;;;12.48;98.20
57442;BME280;43284;47.042;15.498;2022-09-09T03:41:10;97122.34;;;12.39;97.46
57442;BME280;43284;47.042;15.498;2022-09-09T03:43:38;97131.03;;;12.39;98.28
57442;BME280;43284;47.042;15.498;2022-09-09T03:46:06;97122.28;;;12.40;98.18
57442;BME280;43284;47.042;15.498;2022-09-09T03:48:33;97112.03;;;12.35;98.20
57442;BME280;43284;47.042;15.498;2022-09-09T03:51:01;97118.38;;;12.31;97.87
57442;BME280;43284;47.042;15.498;2022-09-09T03:53:29;97121.09;;;12.30;98.38
57442;BME280;43284;47.042;15.498;2022-09-09T03:55:58;97127.28;;;12.29;98.75
57442;BME280;43284;47.042;15.498;2022-09-09T03:58:27;97128.94;;;12.30;98.95
57442;BME280;43284;47.042;15.498;2022-09-09T04:01:00;97128.09;;;12.29;99.29
57442;BME280;43284;47.042;15.498;2022-09-09T04:03:29;97127.34;;;12.27;99.09
57442;BME280;43284;47.042;15.498;2022-09-09T04:05:59;97127.34;;;12.27;98.86
57442;BME280;43284;47.042;15.498;2022-09-09T04:08:29;97134.38;;;12.27;98.83
57442;BME280;43284;47.042;15.498;2022-09-09T04:10:58;97135.38;;;12.24;98.58
57442;BME280;43284;47.042;15.498;2022-09-09T04:13:27;97141.09;;;12.31;99.89
57442;BME280;43284;47.042;15.498;2022-09-09T04:15:58;97137.66;;;12.30;99.31
57442;BME280;43284;47.042;15.498;2022-09-09T04:18:26;97132.66;;;12.26;98.75
57442;BME280;43284;47.042;15.498;2022-09-09T04:20:55;97118.66;;;12.27;99.21
57442;BME280;43284;47.042;15.498;2022-09-09T04:23:28;97123.03;;;12.26;99.27
57442;BME280;43284;47.042;15.498;2022-09-09T04:25:57;97127.34;;;12.27;99.16
57442;BME280;43284;47.042;15.498;2022-09-09T04:28:28;97134.19;;;12.30;99.45
57442;BME280;43284;47.042;15.498;2022-09-09T04:30:56;97126.25;;;12.31;100.00
57442;BME280;43284;47.042;15.498;2022-09-09T04:33:25;97128.88;;;12.31;99.71
57442;BME280;43284;47.042;15.498;2022-09-09T04:35:58;97125.22;;;12.34;100.00
57442;BME280;43284;47.042;15.498;2022-09-09T04:38:25;97134.13;;;12.31;99.38
57442;BME280;43284;47.042;15.498;2022-09-09T04:40:53;97124.47;;;12.32;99.62
57442;BME280;43284;47.042;15.498;2022-09-09T04:43:21;97127.00;;;12.33;99.55
57442;BME280;43284;47.042;15.498;2022-09-09T04:45:50;97120.13;;;12.31;98.55
57442;BME280;43284;47.042;15.498;2022-09-09T04:48:18;97109.66;;;12.31;98.14
57442;BME280;43284;47.042;15.498;2022-09-09T04:51:01;97113.41;;;12.27;98.16
57442;BME280;43284;47.042;15.498;2022-09-09T04:53:31;97109.09;;;12.26;97.82
57442;BME280;43284;47.042;15.498;2022-09-09T04:56:12;97102.25;;;12.23;98.01
57442;BME280;43284;47.042;15.498;2022-09-09T04:58:41;97103.25;;;12.21;98.17
57442;BME280;43284;47.042;15.498;2022-09-09T05:01:15;97110.38;;;12.19;97.93
57442;BME280;43284;47.042;15.498;2022-09-09T05:03:48;97106.91;;;12.18;98.20
57442;BME280;43284;47.042;15.498;2022-09-09T05:06:17;97113.91;;;12.18;97.71
57442;BME280;43284;47.042;15.498;2022-09-09T05:08:44;97114.84;;;12.16;97.82
57442;BME280;43284;47.042;15.498;2022-09-09T05:11:17;97112.16;;;12.18;98.70
57442;BME280;43284;47.042;15.498;2022-09-09T05:13:46;97112.72;;;12.23;99.58
57442;BME280;43284;47.042;15.498;2022-09-09T05:16:14;97116.78;;;12.29;100.00
57442;BME280;43284;47.042;15.498;2022-09-09T05:18:42;97121.09;;;12.30;100.00
57442;BME280;43284;47.042;15.498;2022-09-09T05:21:10;97112.72;;;12.23;98.49
57442;BME280;43284;47.042;15.498;2022-09-09T05:23:39;97107.28;;;12.26;98.91
57442;BME280;43284;47.042;15.498;2022-09-09T05:26:14;97112.28;;;12.31;100.00
57442;BME280;43284;47.042;15.498;2022-09-09T05:28:42;97109.56;;;12.32;99.16
57442;BME280;43284;47.042;15.498;2022-09-09T05:31:10;97117.28;;;12.35;99.73
57442;BME280;43284;47.042;15.498;2022-09-09T05:33:40;97111.78;;;12.40;99.76
57442;BME280;43284;47.042;15.498;2022-09-09T05:36:13;97110.50;;;12.47;100.00
57442;BME280;43284;47.042;15.498;2022-09-09T05:38:41;97118.09;;;12.52;100.00
57442;BME280;43284;47.042;15.498;2022-09-09T05:41:09;97119.88;;;12.51;99.50
57442;BME280;43284;47.042;15.498;2022-09-09T05:43:38;97119.78;;;12.53;99.08
57442;BME280;43284;47.042;15.498;2022-09-09T05:46:11;97109.13;;;12.56;99.40
57442;BME280;43284;47.042;15.498;2022-09-09T05:48:40;97111.28;;;12.64;99.87
57442;BME280;43284;47.042;15.498;2022-09-09T05:51:12;97112.81;;;12.68;99.77
57442;BME280;43284;47.042;15.498;2022-09-09T05:53:42;97111.53;;;12.75;100.00
57442;BME280;43284;47.042;15.498;2022-09-09T05:56:12;97110.16;;;12.84;100.00
57442;BME280;43284;47.042;15.498;2022-09-09T05:58:42;97115.00;;;12.90;99.99
57442;BME280;43284;47.042;15.498;2022-09-09T06:01:16;97126.00;;;12.96;100.00
57442;BME280;43284;47.042;15.498;2022-09-09T06:03:46;97130.81;;;13.04;99.94
57442;BME280;43284;47.042;15.498;2022-09-09T06:06:19;97137.38;;;13.11;100.00
57442;BME280;43284;47.042;15.498;2022-09-09T06:08:50;97134.19;;;13.20;100.00
57442;BME280;43284;47.042;15.498;2022-09-09T06:11:24;97137.16;;;13.30;100.00
57442;BME280;43284;47.042;15.498;2022-09-09T06:13:51;97134.19;;;13.36;100.00
57442;BME280;43284;47.042;15.498;2022-09-09T06:16:22;97135.50;;;13.44;99.83
57442;BME280;43284;47.042;15.498;2022-09-09T06:18:50;97136.78;;;13.51;99.80
57442;BME280;43284;47.042;15.498;2022-09-09T06:21:24;97131.19;;;13.57;99.34
57442;BME280;43284;47.042;15.498;2022-09-09T06:23:54;97135.09;;;13.64;99.05
57442;BME280;43284;47.042;15.498;2022-09-09T06:26:23;97130.22;;;13.72;98.87
57442;BME280;43284;47.042;15.498;2022-09-09T06:28:53;97129.66;;;13.81;99.06
57442;BME280;43284;47.042;15.498;2022-09-09T06:31:22;97130.97;;;13.89;98.21
57442;BME280;43284;47.042;15.498;2022-09-09T06:33:52;97121.69;;;13.97;97.81
57442;BME280;43284;47.042;15.498;2022-09-09T06:36:23;97121.94;;;14.07;97.55
57442;BME280;43284;47.042;15.498;2022-09-09T06:38:51;97120.28;;;14.19;97.33
57442;BME280;43284;47.042;15.498;2022-09-09T06:41:21;97118.78;;;14.29;96.36
57442;BME280;43284;47.042;15.498;2022-09-09T06:43:50;97118.91;;;14.40;95.80
57442;BME280;43284;47.042;15.498;2022-09-09T06:46:27;97119.28;;;14.49;95.67
57442;BME280;43284;47.042;15.498;2022-09-09T06:48:57;97129.34;;;14.56;95.46
57442;BME280;43284;47.042;15.498;2022-09-09T06:51:29;97131.47;;;14.64;94.80
57442;BME280;43284;47.042;15.498;2022-09-09T06:54:02;97122.22;;;14.71;93.44
57442;BME280;43284;47.042;15.498;2022-09-09T06:56:32;97119.81;;;14.81;92.52
57442;BME280;43284;47.042;15.498;2022-09-09T06:59:01;97120.91;;;14.91;90.73
57442;BME280;43284;47.042;15.498;2022-09-09T07:01:34;97126.41;;;15.01;89.82
57442;BME280;43284;47.042;15.498;2022-09-09T07:04:01;97126.72;;;15.09;89.19
57442;BME280;43284;47.042;15.498;2022-09-09T07:06:37;97133.03;;;15.19;90.42
57442;BME280;43284;47.042;15.498;2022-09-09T07:09:08;97121.47;;;15.22;86.35
57442;BME280;43284;47.042;15.498;2022-09-09T07:11:40;97127.69;;;15.34;89.56
57442;BME280;43284;47.042;15.498;2022-09-09T07:14:08;97131.72;;;15.39;89.31
57442;BME280;43284;47.042;15.498;2022-09-09T07:16:38;97134.13;;;15.42;89.04
57442;BME280;43284;47.042;15.498;2022-09-09T07:19:05;97135.09;;;15.41;88.33
57442;BME280;43284;47.042;15.498;2022-09-09T07:21:33;97131.47;;;15.42;88.59
57442;BME280;43284;47.042;15.498;2022-09-09T07:24:01;97124.41;;;15.43;88.64
57442;BME280;43284;47.042;15.498;2022-09-09T07:26:29;97127.78;;;15.45;88.49
57442;BME280;43284;47.042;15.498;2022-09-09T07:28:57;97121.47;;;15.48;89.34
57442;BME280;43284;47.042;15.498;2022-09-09T07:31:32;97135.38;;;15.50;89.59
57442;BME280;43284;47.042;15.498;2022-09-09T07:34:00;97130.94;;;15.50;89.25
57442;BME280;43284;47.042;15.498;2022-09-09T07:36:30;97127.38;;;15.51;88.95
57442;BME280;43284;47.042;15.498;2022-09-09T07:39:05;97129.28;;;15.49;88.12
57442;BME280;43284;47.042;15.498;2022-09-09T07:44:05;97142.34;;;15.51;88.04
57442;BME280;43284;47.042;15.498;2022-09-09T07:46:33;97138.66;;;15.53;87.99
57442;BME280;43284;47.042;15.498;2022-09-09T07:49:01;97134.97;;;15.56;88.46
57442;BME280;43284;47.042;15.498;2022-09-09T07:51:31;97142.75;;;15.57;87.56
57442;BME280;43284;47.042;15.498;2022-09-09T07:54:00;97144.34;;;15.60;88.29
57442;BME280;43284;47.042;15.498;2022-09-09T07:56:29;97141.38;;;15.64;88.90
57442;BME280;43284;47.042;15.498;2022-09-09T07:58:58;97145.59;;;15.67;88.51
57442;BME280;43284;47.042;15.498;2022-09-09T08:01:31;97142.88;;;15.69;87.80
57442;BME280;43284;47.042;15.498;2022-09-09T08:03:59;97148.88;;;15.71;87.31
57442;BME280;43284;47.042;15.498;2022-09-09T08:06:34;97150.66;;;15.70;87.01
57442;BME280;43284;47.042;15.498;2022-09-09T08:09:05;97158.28;;;15.75;87.22
57442;BME280;43284;47.042;15.498;2022-09-09T08:11:34;97155.44;;;15.78;87.08
57442;BME280;43284;47.042;15.498;2022-09-09T08:14:03;97154.34;;;15.80;87.73
57442;BME280;43284;47.042;15.498;2022-09-09T08:16:32;97159.44;;;15.83;87.61
57442;BME280;43284;47.042;15.498;2022-09-09T08:19:00;97157.53;;;15.85;87.85
57442;BME280;43284;47.042;15.498;2022-09-09T08:21:29;97159.84;;;15.90;87.69
57442;BME280;43284;47.042;15.498;2022-09-09T08:23:57;97151.72;;;15.93;87.84
57442;BME280;43284;47.042;15.498;2022-09-09T08:26:30;97156.16;;;15.93;87.43
57442;BME280;43284;47.042;15.498;2022-09-09T08:28:59;97156.16;;;15.93;86.38
57442;BME280;43284;47.042;15.498;2022-09-09T08:31:33;97158.34;;;15.99;86.15
57442;BME280;43284;47.042;15.498;2022-09-09T08:34:01;97168.56;;;16.03;85.79
57442;BME280;43284;47.042;15.498;2022-09-09T08:36:34;97170.88;;;16.08;85.75
57442;BME280;43284;47.042;15.498;2022-09-09T08:39:04;97176.81;;;16.12;85.88
57442;BME280;43284;47.042;15.498;2022-09-09T08:44:17;97171.41;;;16.13;86.17
57442;BME280;43284;47.042;15.498;2022-09-09T08:52:50;97165.25;;;16.25;87.13
57442;BME280;43284;47.042;15.498;2022-09-09T08:58:48;97169.25;;;16.31;85.91
57442;BME280;43284;47.042;15.498;2022-09-09T09:07:03;97163.16;;;16.55;85.45
57442;BME280;43284;47.042;15.498;2022-09-09T09:09:45;97154.44;;;16.65;84.10
57442;BME280;43284;47.042;15.498;2022-09-09T09:12:25;97158.53;;;16.82;84.78
57442;BME280;43284;47.042;15.498;2022-09-09T09:14:54;97160.81;;;16.87;81.57
57442;BME280;43284;47.042;15.498;2022-09-09T09:17:27;97160.75;;;17.00;82.74
57442;BME280;43284;47.042;15.498;2022-09-09T09:19:57;97154.56;;;17.12;81.62
57442;BME280;43284;47.042;15.498;2022-09-09T09:22:49;97159.28;;;17.31;78.90
57442;BME280;43284;47.042;15.498;2022-09-09T09:25:31;97156.91;;;17.39;78.85
57442;BME280;43284;47.042;15.498;2022-09-09T09:28:23;97147.91;;;17.53;78.76
57442;BME280;43284;47.042;15.498;2022-09-09T09:31:13;97152.72;;;17.59;76.69
57442;BME280;43284;47.042;15.498;2022-09-09T09:33:55;97148.53;;;17.79;75.46
57442;BME280;43284;47.042;15.498;2022-09-09T09:36:53;97148.44;;;17.92;77.26
57442;BME280;43284;47.042;15.498;2022-09-09T09:39:31;97144.13;;;18.14;74.65
57442;BME280;43284;47.042;15.498;2022-09-09T09:42:14;97143.50;;;18.21;72.08
57442;BME280;43284;47.042;15.498;2022-09-09T09:44:42;97143.97;;;18.26;73.18
57442;BME280;43284;47.042;15.498;2022-09-09T09:47:24;97140.84;;;18.32;74.20
57442;BME280;43284;47.042;15.498;2022-09-09T09:49:59;97133.97;;;18.41;72.81
57442;BME280;43284;47.042;15.498;2022-09-09T09:52:30;97139.72;;;18.46;72.22
57442;BME280;43284;47.042;15.498;2022-09-09T09:55:01;97129.81;;;18.60;72.63
57442;BME280;43284;47.042;15.498;2022-09-09T09:57:34;97128.69;;;18.73;73.72
57442;BME280;43284;47.042;15.498;2022-09-09T10:00:04;97131.94;;;18.77;71.96
57442;BME280;43284;47.042;15.498;2022-09-09T10:02:41;97132.69;;;18.79;69.59
57442;BME280;43284;47.042;15.498;2022-09-09T10:05:14;97137.13;;;18.79;68.15
57442;BME280;43284;47.042;15.498;2022-09-09T10:07:44;97134.22;;;18.82;65.55
57442;BME280;43284;47.042;15.498;2022-09-09T10:10:30;97129.03;;;18.91;66.01
57442;BME280;43284;47.042;15.498;2022-09-09T10:13:14;97123.47;;;19.16;69.84
57442;BME280;43284;47.042;15.498;2022-09-09T10:16:06;97121.19;;;19.32;67.41
57442;BME280;43284;47.042;15.498;2022-09-09T10:19:03;97116.03;;;19.30;66.35
57442;BME280;43284;47.042;15.498;2022-09-09T10:21:53;97121.41;;;19.40;68.27
57442;BME280;43284;47.042;15.498;2022-09-09T10:24:57;97129.28;;;19.51;67.22
57442;BME280;43284;47.042;15.498;2022-09-09T10:30:24;97105.13;;;19.54;66.25
57442;BME280;43284;47.042;15.498;2022-09-09T10:33:05;97104.06;;;19.57;66.18
57442;BME280;43284;47.042;15.498;2022-09-09T10:35:53;97107.25;;;19.61;64.27
57442;BME280;43284;47.042;15.498;2022-09-09T10:38:45;97105.25;;;19.74;64.51
57442;BME280;43284;47.042;15.498;2022-09-09T10:55:48;97092.81;;;20.05;62.70
57442;BME280;43284;47.042;15.498;2022-09-09T10:58:52;97097.69;;;20.00;63.06
57442;BME280;43284;47.042;15.498;2022-09-09T11:04:16;97088.56;;;19.83;61.72
57442;BME280;43284;47.042;15.498;2022-09-09T11:06:50;97075.44;;;19.82;64.24
57442;BME280;43284;47.042;15.498;2022-09-09T11:09:32;97091.34;;;19.82;65.28
57442;BME280;43284;47.042;15.498;2022-09-09T11:12:05;97085.75;;;19.75;67.06
57442;BME280;43284;47.042;15.498;2022-09-09T11:14:43;97089.22;;;19.75;67.82
57442;BME280;43284;47.042;15.498;2022-09-09T11:17:15;97092.16;;;19.72;66.79
57442;BME280;43284;47.042;15.498;2022-09-09T11:19:45;97089.22;;;19.75;65.89
57442;BME280;43284;47.042;15.498;2022-09-09T11:22:32;97087.16;;;19.79;68.21
57442;BME280;43284;47.042;15.498;2022-09-09T11:25:26;97083.91;;;19.75;67.98
57442;BME280;43284;47.042;15.498;2022-09-09T11:28:46;97077.91;;;19.73;69.95
57442;BME280;43284;47.042;15.498;2022-09-09T11:39:13;97054.63;;;19.87;70.29
57442;BME280;43284;47.042;15.498;2022-09-09T11:41:51;97055.47;;;19.87;71.37
57442;BME280;43284;47.042;15.498;2022-09-09T11:44:29;97033.41;;;19.87;70.75
57442;BME280;43284;47.042;15.498;2022-09-09T11:46:57;97043.19;;;19.86;68.33
57442;BME280;43284;47.042;15.498;2022-09-09T11:49:40;97047.50;;;19.87;67.99
57442;BME280;43284;47.042;15.498;2022-09-09T11:52:37;97043.06;;;19.98;65.65
57442;BME280;43284;47.042;15.498;2022-09-09T11:55:29;97043.94;;;20.08;68.24
57442;BME280;43284;47.042;15.498;2022-09-09T12:00:42;97036.00;;;20.17;63.77
57442;BME280;43284;47.042;15.498;2022-09-09T12:06:31;97025.09;;;20.30;59.72
57442;BME280;43284;47.042;15.498;2022-09-09T12:09:14;97016.88;;;20.43;60.56
57442;BME280;43284;47.042;15.498;2022-09-09T12:11:45;97018.28;;;20.47;63.14
57442;BME280;43284;47.042;15.498;2022-09-09T12:14:36;97017.97;;;20.50;63.47
57442;BME280;43284;47.042;15.498;2022-09-09T12:17:19;97012.66;;;20.50;63.27
57442;BME280;43284;47.042;15.498;2022-09-09T12:19:47;97005.53;;;20.51;61.24
57442;BME280;43284;47.042;15.498;2022-09-09T12:27:44;97011.28;;;20.36;64.38
57442;BME280;43284;47.042;15.498;2022-09-09T12:30:16;97012.25;;;20.35;66.44
57442;BME280;43284;47.042;15.498;2022-09-09T12:32:45;97005.84;;;20.38;63.90
57442;BME280;43284;47.042;15.498;2022-09-09T12:37:51;96998.28;;;20.43;61.90
57442;BME280;43284;47.042;15.498;2022-09-09T12:40:33;96999.25;;;20.42;63.22
57442;BME280;43284;47.042;15.498;2022-09-09T12:43:02;96989.22;;;20.36;62.91
57442;BME280;43284;47.042;15.498;2022-09-09T12:45:44;96983.03;;;20.35;64.60
57442;BME280;43284;47.042;15.498;2022-09-09T12:48:12;96982.34;;;20.43;62.77
57442;BME280;43284;47.042;15.498;2022-09-09T12:50:51;96977.19;;;20.51;62.19
57442;BME280;43284;47.042;15.498;2022-09-09T12:53:25;96978.31;;;20.49;62.97
57442;BME280;43284;47.042;15.498;2022-09-09T12:55:59;96985.41;;;20.48;61.89
57442;BME280;43284;47.042;15.498;2022-09-09T12:58:30;96986.53;;;20.46;61.90
57442;BME280;43284;47.042;15.498;2022-09-09T13:01:04;96986.13;;;20.41;65.17
57442;BME280;43284;47.042;15.498;2022-09-09T13:03:33;96975.94;;;20.36;64.52
57442;BME280;43284;47.042;15.498;2022-09-09T13:06:21;96980.69;;;20.32;64.82
57442;BME280;43284;47.042;15.498;2022-09-09T13:08:51;96980.81;;;20.31;67.15
57442;BME280;43284;47.042;15.498;2022-09-09T13:11:45;96979.00;;;20.31;64.67
57442;BME280;43284;47.042;15.498;2022-09-09T13:14:30;96973.81;;;20.20;64.64
57442;BME280;43284;47.042;15.498;2022-09-09T13:17:01;96967.97;;;20.16;67.30
57442;BME280;43284;47.042;15.498;2022-09-09T13:19:38;96969.22;;;20.12;67.32
57442;BME280;43284;47.042;15.498;2022-09-09T13:22:28;96958.31;;;20.06;68.35
57442;BME280;43284;47.042;15.498;2022-09-09T13:27:40;96946.03;;;19.95;68.25
57442;BME280;43284;47.042;15.498;2022-09-09T13:30:29;96942.53;;;19.94;67.95
57442;BME280;43284;47.042;15.498;2022-09-09T13:33:23;96939.47;;;19.99;68.18
57442;BME280;43284;47.042;15.498;2022-09-09T13:35:54;96946.44;;;20.00;68.54
57442;BME280;43284;47.042;15.498;2022-09-09T13:38:23;96950.78;;;20.01;69.79
57442;BME280;43284;47.042;15.498;2022-09-09T13:41:03;96943.09;;;19.88;71.65
57442;BME280;43284;47.042;15.498;2022-09-09T13:43:38;96940.03;;;19.83;70.24
57442;BME280;43284;47.042;15.498;2022-09-09T13:46:40;96942.66;;;19.83;71.19
57442;BME280;43284;47.042;15.498;2022-09-09T13:51:46;96932.59;;;19.77;69.33
57442;BME280;43284;47.042;15.498;2022-09-09T13:54:15;96934.69;;;19.73;71.32
57442;BME280;43284;47.042;15.498;2022-09-09T13:56:44;96935.78;;;19.71;73.30
57442;BME280;43284;47.042;15.498;2022-09-09T13:59:18;96935.59;;;19.63;75.17
57442;BME280;43284;47.042;15.498;2022-09-09T14:01:51;96934.47;;;19.55;77.14
57442;BME280;43284;47.042;15.498;2022-09-09T14:04:19;96938.50;;;19.50;78.48
57442;BME280;43284;47.042;15.498;2022-09-09T14:06:50;96938.34;;;19.42;77.98
57442;BME280;43284;47.042;15.498;2022-09-09T14:09:19;96929.81;;;19.38;74.47
57442;BME280;43284;47.042;15.498;2022-09-09T14:11:46;96933.84;;;19.32;74.30
57442;BME280;43284;47.042;15.498;2022-09-09T14:14:18;96932.72;;;19.25;75.68
57442;BME280;43284;47.042;15.498;2022-09-09T14:16:46;96943.00;;;19.19;77.52
57442;BME280;43284;47.042;15.498;2022-09-09T14:19:13;96937.28;;;19.13;77.76
57442;BME280;43284;47.042;15.498;2022-09-09T14:21:40;96928.03;;;19.08;77.86
57442;BME280;43284;47.042;15.498;2022-09-09T14:24:08;96927.34;;;19.06;78.16
57442;BME280;43284;47.042;15.498;2022-09-09T14:26:35;96927.88;;;19.00;78.00
57442;BME280;43284;47.042;15.498;2022-09-09T14:29:03;96932.03;;;18.92;80.11
57442;BME280;43284;47.042;15.498;2022-09-09T14:31:30;96936.72;;;18.89;80.36
57442;BME280;43284;47.042;15.498;2022-09-09T14:33:58;96938.66;;;18.87;81.35
57442;BME280;43284;47.042;15.498;2022-09-09T14:36:25;96936.41;;;18.82;81.49
57442;BME280;43284;47.042;15.498;2022-09-09T14:38:53;96946.66;;;18.76;81.01
57442;BME280;43284;47.042;15.498;2022-09-09T14:41:20;96952.34;;;18.71;82.75
57442;BME280;43284;47.042;15.498;2022-09-09T14:43:49;96957.09;;;18.67;83.84
57442;BME280;43284;47.042;15.498;2022-09-09T14:46:18;96957.59;;;18.61;84.06
57442;BME280;43284;47.042;15.498;2022-09-09T14:48:47;96958.44;;;18.62;85.93
57442;BME280;43284;47.042;15.498;2022-09-09T14:51:21;96959.66;;;18.58;85.16
57442;BME280;43284;47.042;15.498;2022-09-09T14:53:55;96968.97;;;18.52;86.58
57442;BME280;43284;47.042;15.498;2022-09-09T14:56:27;96964.03;;;18.47;86.72
57442;BME280;43284;47.042;15.498;2022-09-09T14:58:55;96962.50;;;18.45;86.41
57442;BME280;43284;47.042;15.498;2022-09-09T15:01:24;96958.19;;;18.44;85.50
57442;BME280;43284;47.042;15.498;2022-09-09T15:03:58;96956.50;;;18.43;84.60
57442;BME280;43284;47.042;15.498;2022-09-09T15:06:28;96952.91;;;18.44;84.05